Flight Track Log - Related Links

Times and Time Zones

All times are in EDT time to prevent confusion due to time zone crossing. See the CSN3104 flight status page for this flight to view local times or setup timezone preferences in your user account.

Time Position Orientation Groundspeed Altitude Reporting Facility
EDT Latitude Longitude Course Direction KTS MPH feet Rate Location/Type
Sun 05:37:00 AM 39.9550 116.5546 190° South  Level Estimated
Sun 05:38:00 AM 39.8299 116.5247 190° South  Level Estimated
Sun 05:39:00 AM 39.7048 116.4949 190° South  Level Estimated
Sun 05:40:00 AM 39.5797 116.4652 190° South  Level Estimated
Sun 05:41:00 AM 39.4546 116.4357 190° South  Level Estimated
Sun 05:42:00 AM 39.3294 116.4062 190° South  Level Estimated
Sun 05:43:00 AM 39.2043 116.3768 190° South  Level Estimated
Sun 05:44:00 AM 39.0792 116.3476 190° South  Level Estimated
Sun 05:45:00 AM 38.9540 116.3185 190° South  Level Estimated
Sun 05:46:00 AM 38.8288 116.2894 190° South  Level Estimated
Sun 05:47:00 AM 38.7037 116.2605 190° South  Level Estimated
Sun 05:48:00 AM 38.5785 116.2316 190° South  Level Estimated
Sun 05:49:00 AM 38.4533 116.2029 190° South  Level Estimated
Sun 05:50:00 AM 38.3281 116.1743 190° South  Level Estimated
Sun 05:51:00 AM 38.2029 116.1457 190° South  Level Estimated
Sun 05:52:00 AM 38.0778 116.1173 190° South  Level Estimated
Sun 05:53:00 AM 37.9525 116.0889 190° South  Level Estimated
Sun 05:54:00 AM 37.8273 116.0607 190° South  Level Estimated
Sun 05:55:00 AM 37.7021 116.0325 190° South  Level Estimated
Sun 05:56:00 AM 37.5769 116.0045 190° South  Level Estimated
Sun 05:57:00 AM 37.4516 115.9765 190° South  Level Estimated
Sun 05:58:00 AM 37.3264 115.9486 190° South  Level Estimated
Sun 05:59:00 AM 37.2011 115.9209 190° South  Level Estimated
Sun 06:00:00 AM 37.0759 115.8932 190° South  Level Estimated
Sun 06:01:00 AM 36.9506 115.8656 190° South  Level Estimated
Sun 06:02:00 AM 36.8254 115.8381 190° South  Level Estimated
Sun 06:03:00 AM 36.7001 115.8107 190° South  Level Estimated
Sun 06:04:00 AM 36.5748 115.7834 190° South  Level Estimated
Sun 06:05:00 AM 36.4495 115.7561 190° South  Level Estimated
Sun 06:06:00 AM 36.3242 115.7290 190° South  Level Estimated
Sun 06:07:00 AM 36.1989 115.7019 190° South  Level Estimated
Sun 06:08:00 AM 36.0736 115.6750 190° South  Level Estimated
Sun 06:09:00 AM 35.9483 115.6481 190° South  Level Estimated
Sun 06:10:00 AM 35.8230 115.6213 190° South  Level Estimated
Sun 06:11:00 AM 35.6977 115.5946 190° South  Level Estimated
Sun 06:12:00 AM 35.5723 115.5679 190° South  Level Estimated
Sun 06:13:00 AM 35.4470 115.5414 190° South  Level Estimated
Sun 06:14:00 AM 35.3217 115.5149 190° South  Level Estimated
Sun 06:15:00 AM 35.1963 115.4885 190° South  Level Estimated
Sun 06:16:00 AM 35.0710 115.4622 190° South  Level Estimated
Sun 06:17:00 AM 34.9456 115.4360 190° South  Level Estimated
Sun 06:18:00 AM 34.8203 115.4098 190° South  Level Estimated
Sun 06:19:00 AM 34.6949 115.3838 190° South  Level Estimated
Sun 06:20:00 AM 34.5695 115.3578 190° South  Level Estimated
Sun 06:21:00 AM 34.4441 115.3319 190° South  Level Estimated
Sun 06:22:00 AM 34.3188 115.3061 190° South  Level Estimated
Sun 06:23:00 AM 34.1934 115.2803 190° South  Level Estimated
Sun 06:24:00 AM 34.0680 115.2546 190° South  Level Estimated
Sun 06:25:00 AM 33.9426 115.2290 190° South  Level Estimated
Sun 06:26:00 AM 33.8172 115.2035 190° South  Level Estimated
Sun 06:27:00 AM 33.6917 115.1780 190° South  Level Estimated
Sun 06:28:00 AM 33.5663 115.1527 190° South  Level Estimated
Sun 06:29:00 AM 33.4409 115.1274 190° South  Level Estimated
Sun 06:30:00 AM 33.3155 115.1021 190° South  Level Estimated
Sun 06:31:00 AM 33.1900 115.0770 190° South  Level Estimated
Sun 06:32:00 AM 33.0646 115.0519 190° South  Level Estimated
Sun 06:33:00 AM 32.9597 115.0310 190° South  Level Estimated
Sun 06:34:00 AM 32.8548 115.0101 189° South  Level Estimated
Sun 06:35:00 AM 32.7498 114.9892 189° South  Level Estimated
Sun 06:36:00 AM 32.6449 114.9685 189° South  Level Estimated
Sun 06:37:00 AM 32.5399 114.9477 189° South  Level Estimated
Sun 06:38:00 AM 32.4350 114.9270 189° South  Level Estimated
Sun 06:39:00 AM 32.3300 114.9064 189° South  Level Estimated
Sun 06:40:00 AM 32.2251 114.8858 189° South  Level Estimated
Sun 06:41:00 AM 32.1201 114.8653 189° South  Level Estimated
Sun 06:42:00 AM 32.0152 114.8448 189° South  Level Estimated
Sun 06:43:00 AM 31.9102 114.8243 189° South  Level Estimated
Sun 06:44:00 AM 31.8052 114.8039 189° South  Level Estimated
Sun 06:45:00 AM 31.7003 114.7836 189° South  Level Estimated
Sun 06:46:00 AM 31.5953 114.7633 189° South  Level Estimated
Sun 06:47:00 AM 31.4903 114.7430 189° South  Level Estimated
Sun 06:48:00 AM 31.3853 114.7228 189° South  Level Estimated
Sun 06:49:00 AM 31.2803 114.7026 189° South  Level Estimated
Sun 06:50:00 AM 31.1754 114.6825 189° South  Level Estimated
Sun 06:51:00 AM 31.0704 114.6624 189° South  Level Estimated
Sun 06:52:00 AM 30.9654 114.6424 189° South  Level Estimated
Sun 06:53:00 AM 30.8604 114.6224 189° South  Level Estimated
Sun 06:54:00 AM 30.7554 114.6024 189° South  Level Estimated
Sun 06:55:00 AM 30.6504 114.5825 189° South  Level Estimated
Sun 06:56:00 AM 30.5454 114.5627 189° South  Level Estimated
Sun 06:57:00 AM 30.4404 114.5428 189° South  Level Estimated
Sun 06:58:00 AM 30.3354 114.5231 189° South  Level Estimated
Sun 06:59:00 AM 30.2304 114.5033 189° South  Level Estimated
Sun 07:00:00 AM 30.1253 114.4837 189° South  Level Estimated
Sun 07:01:00 AM 30.0203 114.4640 189° South  Level Estimated
Sun 07:02:00 AM 29.9153 114.4444 189° South  Level Estimated
Sun 07:03:00 AM 29.8103 114.4248 189° South  Level Estimated
Sun 07:04:00 AM 29.7052 114.4053 189° South  Level Estimated
Sun 07:05:00 AM 29.6002 114.3858 189° South  Level Estimated
Sun 07:06:00 AM 29.4952 114.3664 189° South  Level Estimated
Sun 07:07:00 AM 29.3902 114.3470 189° South  Level Estimated
Sun 07:08:00 AM 29.2851 114.3276 189° South  Level Estimated
Sun 07:09:00 AM 29.1801 114.3083 189° South  Level Estimated
Sun 07:10:00 AM 29.0750 114.2890 189° South  Level Estimated
Sun 07:11:00 AM 28.9700 114.2697 189° South  Level Estimated
Sun 07:12:00 AM 28.8649 114.2505 189° South  Level Estimated
Sun 07:13:00 AM 28.7599 114.2314 189° South  Level Estimated
Sun 07:14:00 AM 28.6548 114.2122 189° South  Level Estimated
Sun 07:15:00 AM 28.5498 114.1931 189° South  Level Estimated
Sun 07:16:00 AM 28.4447 114.1741 189° South  Level Estimated
Sun 07:17:00 AM 28.3396 114.1551 189° South  Level Estimated
Sun 07:18:00 AM 28.2346 114.1361 189° South  Level Estimated
Sun 07:19:00 AM 28.1295 114.1171 189° South  Level Estimated
Sun 07:20:00 AM 28.0244 114.0982 189° South  Level Estimated
Sun 07:21:00 AM 27.9194 114.0794 189° South  Level Estimated
Sun 07:22:00 AM 27.8143 114.0605 189° South  Level Estimated
Sun 07:23:00 AM 27.7092 114.0417 189° South  Level Estimated
Sun 07:24:00 AM 27.6041 114.0230 189° South  Level Estimated
Sun 07:25:00 AM 27.4990 114.0043 189° South  Level Estimated
Sun 07:26:00 AM 27.3939 113.9856 189° South  Level Estimated
Sun 07:27:00 AM 27.2889 113.9669 189° South  Level Estimated
Sun 07:28:00 AM 27.1838 113.9483 189° South  Level Estimated
Sun 07:29:00 AM 27.0787 113.9297 189° South  Level Estimated
Sun 07:30:00 AM 26.9736 113.9112 189° South  Level Estimated
Sun 07:31:00 AM 26.8685 113.8927 189° South  Level Estimated
Sun 07:32:00 AM 26.7634 113.8742 189° South  Level Estimated
Sun 07:33:00 AM 26.6583 113.8558 189° South  Level Estimated
Sun 07:34:00 AM 26.5532 113.8374 189° South  Level Estimated
Sun 07:35:00 AM 26.4481 113.8190 189° South  Level Estimated
Sun 07:36:00 AM 26.3430 113.8007 189° South  Level Estimated
Sun 07:37:00 AM 26.2378 113.7823 189° South  Level Estimated
Sun 07:38:00 AM 26.1327 113.7641 189° South  Level Estimated
Sun 07:38:28 AM 24.2420 113.6920 189° South 363 418 13,800  Level FlightAware ADS-B
Sun 07:39:00 AM 26.0276 113.7458 189° South  Level Estimated
Sun 07:39:08 AM 24.1730 113.6840 186° South 360 414 13,400  Level FlightAware ADS-B
Sun 07:39:38 AM 24.1290 113.6710 195° South 356 410 13,200 -160 Descending FlightAware ADS-B
Sun 07:40:23 AM 24.0650 113.6460 200° South 356 410 13,200 -505 Level FlightAware ADS-B
Sun 07:41:13 AM 23.9770 113.6140 198° South 348 400 12,400 -776 Descending FlightAware ADS-B
Sun 07:41:48 AM 23.9260 113.5940 200° South 350 403 12,100 -462 Descending FlightAware ADS-B
Sun 07:42:18 AM 23.8790 113.5770 198° South 351 404 11,900 -257 Descending FlightAware ADS-B
Sun 07:42:58 AM 23.8210 113.5550 199° South 315 362 11,800 -71 Descending FlightAware ADS-B
Sun 07:43:43 AM 23.7590 113.5310 200° South 309 356 11,800  Level FlightAware ADS-B
Sun 07:44:23 AM 23.7020 113.5140 195° South 311 358 11,800  Level FlightAware ADS-B
Sun 07:44:53 AM 23.6610 113.5030 194° South 312 359 11,800 -514 Level FlightAware ADS-B
Sun 07:45:33 AM 23.6050 113.4870 195° South 307 353 11,200 -1,412 Descending FlightAware ADS-B
Sun 07:46:18 AM 23.5430 113.4710 193° South 314 361 9,800 -1,477 Descending FlightAware ADS-B
Sun 07:46:38 AM 23.5150 113.4630 195° South 305 351 9,600 -750 Descending FlightAware ADS-B
Sun 07:46:58 AM 23.4890 113.4560 194° South 298 343 9,300 -1,200 Descending FlightAware ADS-B
Sun 07:47:23 AM 23.4540 113.4460 195° South 294 338 8,700 -1,309 Descending FlightAware ADS-B
Sun 07:47:53 AM 23.4150 113.4360 193° South 291 335 8,100 -933 Descending FlightAware ADS-B
Sun 07:48:08 AM 23.3960 113.4310 194° South 284 327 8,000 -150 Descending FlightAware ADS-B
Sun 07:48:33 AM 23.3640 113.4220 194° South 261 300 8,000 -1,309 Level FlightAware ADS-B
Sun 07:49:03 AM 23.3280 113.4130 193° South 278 320 6,800 -2,000 Descending FlightAware ADS-B
Sun 07:49:33 AM 23.2890 113.4020 195° South 293 337 6,000 -1,440 Descending FlightAware ADS-B
Sun 07:49:53 AM 23.2620 113.3950 193° South 287 330 5,600 -1,200 Descending FlightAware ADS-B
Sun 07:50:08 AM 23.2450 113.3910 192° South 287 330 5,300 -900 Descending FlightAware ADS-B
Sun 07:50:33 AM 23.2120 113.3820 194° South 275 316 5,000 -655 Descending FlightAware ADS-B
Sun 07:51:03 AM 23.1770 113.3720 195° South 262 302 4,700 -700 Descending FlightAware ADS-B
Sun 07:51:33 AM 23.1410 113.3610 196° South 249 287 4,300 -750 Descending FlightAware ADS-B
Sun 07:51:43 AM 23.1330 113.3530 223° Southwest 241 277 4,200 -600 Descending FlightAware ADS-B
Sun 07:52:03 AM 23.1260 113.3310 251° West 222 255 4,000 -400 Descending FlightAware ADS-B
Sun 07:52:28 AM 23.1240 113.3050 265° West 208 239 3,900 -462 Descending FlightAware ADS-B
Sun 07:53:08 AM 23.1330 113.2710 286° West 180 207 3,500 -436 Descending FlightAware ADS-B
Sun 07:53:23 AM 23.1460 113.2670 344° North 177 204 3,500 -150 Level FlightAware ADS-B
Sun 07:53:48 AM 23.1650 113.2620 346° North 179 206 3,400 -240 Descending FlightAware ADS-B
Sun 07:54:13 AM 23.1860 113.2580 350° North 180 207 3,300 -277 Descending FlightAware ADS-B
Sun 07:54:53 AM 23.2200 113.2630 North 179 206 3,100 -514 Descending FlightAware ADS-B
Sun 07:55:23 AM 23.2430 113.2700 16° North 178 205 2,700 -750 Descending FlightAware ADS-B
Sun 07:55:33 AM 23.2510 113.2720 13° North 174 200 2,600 -960 Descending FlightAware ADS-B
Sun 07:55:48 AM 23.2630 113.2750 13° North 170 196 2,300 -933 Descending FlightAware ADS-B
Sun 07:56:18 AM 23.2840 113.2810 15° North 145 167 1,900 -800 Descending FlightAware ADS-B
Sun 07:56:33 AM 23.2940 113.2830 10° North 137 158 1,700 -667 Descending FlightAware ADS-B
Sun 07:57:03 AM 23.3110 113.2880 15° North 139 160 1,400 -369 Descending FlightAware ADS-B
Sun 07:57:38 AM 23.3320 113.2940 15° North 139 160 1,300 -171 Descending FlightAware ADS-B
Sun 08:00:00 AM 23.3924 113.2988 North  Level Estimated
Sun 08:01:00 AM 23.3924 113.2988 223° Southwest  Level Estimated
Sun 08:02:00 AM 23.3924 113.2988 223° Southwest  Level Estimated
Sun 08:03:00 AM 23.3924 113.2988 223° Southwest  Level Estimated
Sun 08:04:00 AM 23.3924 113.2988 223° Southwest  Level Estimated
Sun 08:05:00 AM 23.3924 113.2988 223° Southwest  Level Estimated
Sun 08:06:00 AM 23.3924 113.2988 223° Southwest  Level Estimated
Sun 08:07:00 AM 23.3924 113.2988 223° Southwest  Level Estimated
Sun 08:08:00 AM 23.3924 113.2988 223° Southwest  Level Estimated
Sun 08:09:00 AM 23.3924 113.2988 223° Southwest  Level Estimated
Sun 08:10:00 AM 23.3924 113.2988 223° Southwest  Level Estimated
Sun 08:11:00 AM 23.3924 113.2988 223° Southwest  Level Estimated

Login

Don't have an account? Register now (free) for customized features, flight alerts, and more!